Margate, South Africa
Current Conditions -  °F | °C
As of 8:00 PM on Wednesday 28 Jan 2015 (Local Time) from FALE Reporting Station
Light Rain Light Rain  
Wind Chill: 70°   Ceiling: 1300
Heat Index: 70°   Visibility: 6mi
Dew Point: 66°   Wind: 15mph
Humidity: 88%   Direction: 220°SW
Pressure: 30.03"   Gusts: NA
Location:  30.85°S, 30.38°E
Report Text: FALE 281800Z 22013KT 9999 -RA SCT010 BKN013 OVC025 21/19 Q1017 TEMPO 5000 -RA
Loading
Personal Weather Stations






























Interactive Weather Map New forecast layout! Learn more

10-Day Weather Forecast

Advertisements
Track Severe Weather on mobile